Time;durP1;ratioP1;P1;durP2;ratioP2;P2;SDS_P1;SDS_P2;PMS_P1;PMS_P2;Temp;Humidity;BMP_temperature;BMP_pressure;BME280_temperature;BME280_humidity;BME280_pressure;Samples;Min_cycle;Max_cycle;Signal;HPM_P1;HPM_P2
2022/06/01 00:00:29;;;;;;;3.10;1.40;;;16.90;95.70;;;;;;5014101;28;20025;-94
2022/06/01 00:02:56;;;;;;;3.10;1.60;;;16.90;95.70;;;;;;5014340;28;20026;-95
2022/06/01 00:05:22;;;;;;;2.95;1.30;;;16.90;95.70;;;;;;5014479;28;20026;-95
2022/06/01 00:07:49;;;;;;;2.88;1.40;;;16.80;95.60;;;;;;5014533;28;20030;-95
2022/06/01 00:10:15;;;;;;;3.72;1.60;;;16.80;95.60;;;;;;5014981;28;20076;-95
2022/06/01 00:12:42;;;;;;;2.70;1.23;;;16.80;95.60;;;;;;5015724;28;20022;-94
2022/06/01 00:15:09;;;;;;;3.08;1.60;;;16.80;95.50;;;;;;5015359;28;20481;-95
2022/06/01 00:17:35;;;;;;;3.17;1.50;;;16.80;95.50;;;;;;5014477;28;20030;-94
2022/06/01 00:20:00;;;;;;;3.58;1.48;;;16.80;95.50;;;;;;5014645;28;20022;-95
2022/06/01 00:22:26;;;;;;;3.92;1.48;;;16.80;95.50;;;;;;5014853;28;20033;-95
2022/06/01 00:24:52;;;;;;;2.35;1.42;;;16.80;95.50;;;;;;5014585;28;20026;-94
2022/06/01 00:27:18;;;;;;;3.92;1.63;;;16.80;95.50;;;;;;5014564;28;20088;-95
2022/06/01 00:29:44;;;;;;;3.63;1.30;;;16.80;95.50;;;;;;5014780;28;20365;-94
2022/06/01 00:32:13;;;;;;;4.15;1.63;;;16.80;95.40;;;;;;5013606;28;20057;-95
2022/06/01 00:34:39;;;;;;;5.63;1.80;;;16.70;95.40;;;;;;5013994;28;20033;-96
2022/06/01 00:37:05;;;;;;;3.72;2.00;;;16.70;95.40;;;;;;5013653;28;20049;-94
2022/06/01 00:39:31;;;;;;;2.55;1.50;;;16.70;95.40;;;;;;5016459;28;20425;-95
2022/06/01 00:42:22;;;;;;;3.67;1.77;;;16.70;95.40;;;;;;5018151;28;20022;-95
2022/06/01 00:44:48;;;;;;;3.45;1.58;;;16.70;95.40;;;;;;5018547;28;20033;-94
2022/06/01 00:47:17;;;;;;;2.33;1.52;;;16.70;95.30;;;;;;5017880;28;20505;-95
2022/06/01 00:50:11;;;;;;;2.85;1.67;;;16.70;95.30;;;;;;5017348;28;20397;-96
2022/06/01 00:52:45;;;;;;;4.32;1.80;;;16.70;95.30;;;;;;5006524;28;20531;-94
2022/06/01 00:55:17;;;;;;;4.45;1.65;;;16.70;95.30;;;;;;5018132;28;20022;-95
2022/06/01 00:57:45;;;;;;;3.03;1.65;;;16.70;95.30;;;;;;5018132;28;20048;-94
2022/06/01 01:00:20;;;;;;;4.38;1.50;;;16.70;95.30;;;;;;5017122;28;20393;-94
2022/06/01 01:02:48;;;;;;;3.25;1.83;;;16.70;95.30;;;;;;5017225;28;20031;-94
2022/06/01 01:05:16;;;;;;;3.17;1.55;;;16.60;95.30;;;;;;5017376;28;20401;-94
2022/06/01 01:07:44;;;;;;;3.72;1.75;;;16.60;95.30;;;;;;5017146;28;20080;-96
2022/06/01 01:10:12;;;;;;;3.20;1.40;;;16.60;95.30;;;;;;5016675;28;20029;-94
2022/06/01 01:13:14;;;;;;;2.50;1.60;;;16.60;95.20;;;;;;5016771;28;20465;-95
2022/06/01 01:15:35;;;;;;;2.38;1.58;;;16.60;95.30;;;;;;5014559;28;20105;-95
2022/06/01 01:18:08;;;;;;;3.42;1.55;;;16.60;95.20;;;;;;5017089;28;20408;-95
2022/06/01 01:20:39;;;;;;;4.35;1.50;;;16.60;95.20;;;;;;5017041;28;20397;-94
2022/06/01 01:23:45;;;;;;;2.58;1.60;;;16.60;95.20;;;;;;5016813;28;20025;-95
2022/06/01 01:26:11;;;;;;;3.55;1.60;;;16.60;95.20;;;;;;5016819;28;20519;-94
2022/06/01 01:28:37;;;;;;;3.97;1.52;;;16.60;95.20;;;;;;5016487;28;20081;-95
2022/06/01 01:31:05;;;;;;;4.00;1.58;;;16.60;95.20;;;;;;5016960;28;20030;-94
2022/06/01 01:33:31;;;;;;;3.63;1.48;;;16.50;95.20;;;;;;5016870;28;20045;-95
2022/06/01 01:36:10;;;;;;;2.88;1.33;;;16.60;95.20;;;;;;5016194;28;20069;-95
2022/06/01 01:38:59;;;;;;;6.32;1.50;;;16.60;95.20;;;;;;5015918;28;20033;-95
2022/06/01 01:41:28;;;;;;;4.45;1.52;;;16.50;95.20;;;;;;5016489;28;20121;-95
2022/06/01 01:44:13;;;;;;;2.90;1.50;;;16.60;95.20;;;;;;5016208;28;20069;-94
2022/06/01 01:46:39;;;;;;;3.65;1.75;;;16.50;95.20;;;;;;5016765;28;20444;-95
2022/06/01 01:49:06;;;;;;;2.72;1.60;;;16.50;95.20;;;;;;5017370;28;20026;-95
2022/06/01 01:51:32;;;;;;;3.10;1.60;;;16.50;95.10;;;;;;5015985;28;20033;-95
2022/06/01 01:54:01;;;;;;;3.25;1.60;;;16.50;95.10;;;;;;5017222;28;20028;-94
2022/06/01 01:56:30;;;;;;;2.15;1.52;;;16.50;95.10;;;;;;5017081;28;20473;-94
2022/06/01 01:59:31;;;;;;;4.20;1.52;;;16.50;95.10;;;;;;5016833;28;20068;-94
2022/06/01 02:02:07;;;;;;;4.05;1.60;;;16.50;95.10;;;;;;4998839;28;20397;-94
2022/06/01 02:07:34;;;;;;;4.35;1.70;;;16.50;95.50;;;;;;5017180;28;20029;-94
2022/06/01 02:12:46;;;;;;;2.60;1.40;;;16.40;95.10;;;;;;5017477;28;20033;-94
2022/06/01 02:15:22;;;;;;;4.75;1.50;;;16.40;95.10;;;;;;5015521;28;20018;-95
2022/06/01 02:17:51;;;;;;;3.85;1.48;;;16.40;95.10;;;;;;5016566;28;20488;-94
2022/06/01 02:20:27;;;;;;;2.45;1.40;;;16.40;95.10;;;;;;5015611;28;20161;-94
2022/06/01 02:22:53;;;;;;;2.85;1.60;;;16.40;95.10;;;;;;5016354;28;20121;-94
2022/06/01 02:25:20;;;;;;;4.07;1.60;;;16.40;95.10;;;;;;5015818;28;20478;-93
2022/06/01 02:27:48;;;;;;;2.17;1.42;;;16.40;95.10;;;;;;5015951;28;20032;-94
2022/06/01 02:30:20;;;;;;;2.10;1.27;;;16.40;95.10;;;;;;5015294;28;20026;-95
2022/06/01 02:32:48;;;;;;;3.90;1.63;;;16.40;95.10;;;;;;5015077;28;20113;-94
2022/06/01 02:35:19;;;;;;;2.78;1.48;;;16.30;95.00;;;;;;5015121;28;20580;-94
2022/06/01 02:37:48;;;;;;;1.80;1.30;;;16.30;95.10;;;;;;5012274;28;20081;-94
2022/06/01 02:40:19;;;;;;;3.88;1.45;;;16.30;95.10;;;;;;4979225;28;20026;-93
2022/06/01 02:42:50;;;;;;;3.20;1.50;;;16.30;95.10;;;;;;4995857;28;20496;-94
2022/06/01 02:45:18;;;;;;;4.40;1.30;;;16.30;95.00;;;;;;4979508;28;20026;-94
2022/06/01 02:47:45;;;;;;;2.95;1.35;;;16.30;95.00;;;;;;4978721;28;20034;-94
2022/06/01 02:50:17;;;;;;;5.05;1.50;;;16.30;95.00;;;;;;4978972;28;20029;-94
2022/06/01 02:52:44;;;;;;;2.70;1.33;;;16.30;95.00;;;;;;4979614;28;20027;-95
2022/06/01 02:55:13;;;;;;;2.47;1.40;;;16.30;95.00;;;;;;4978862;28;20034;-96
2022/06/01 02:57:43;;;;;;;3.22;1.58;;;16.30;95.00;;;;;;4978879;28;20490;-94
2022/06/01 03:00:17;;;;;;;2.88;1.67;;;16.20;95.00;;;;;;4978727;28;20029;-94
2022/06/01 03:02:44;;;;;;;3.45;1.63;;;16.20;95.00;;;;;;4978004;28;20058;-95
2022/06/01 03:05:11;;;;;;;6.55;1.65;;;16.30;95.00;;;;;;4979552;28;20121;-95
2022/06/01 03:07:37;;;;;;;2.95;1.52;;;16.20;95.00;;;;;;4979851;28;20143;-95
2022/06/01 03:10:03;;;;;;;3.05;1.50;;;16.20;95.00;;;;;;4981460;28;20414;-95
2022/06/01 03:12:29;;;;;;;2.70;1.40;;;16.20;95.00;;;;;;4981492;28;20030;-94
2022/06/01 03:14:54;;;;;;;2.40;1.27;;;16.20;94.90;;;;;;4980801;28;20478;-94
2022/06/01 03:17:20;;;;;;;3.78;1.95;;;16.20;94.90;;;;;;4981259;28;20081;-95
2022/06/01 03:19:46;;;;;;;4.00;1.80;;;16.20;94.90;;;;;;4979799;28;20058;-95
2022/06/01 03:22:11;;;;;;;3.25;1.48;;;16.20;94.90;;;;;;4981132;28;20034;-95
2022/06/01 03:24:37;;;;;;;2.97;1.48;;;16.20;94.90;;;;;;4981048;28;20031;-95
2022/06/01 03:27:03;;;;;;;4.20;1.75;;;16.20;94.90;;;;;;4980800;28;20022;-95
2022/06/01 03:29:29;;;;;;;2.67;1.60;;;16.20;94.90;;;;;;4980692;28;20342;-95
2022/06/01 03:31:55;;;;;;;2.50;1.40;;;16.20;94.90;;;;;;4980784;28;20027;-95
2022/06/01 03:34:22;;;;;;;2.88;1.58;;;16.20;94.80;;;;;;4980082;28;20046;-95
2022/06/01 03:36:48;;;;;;;3.25;1.52;;;16.10;94.80;;;;;;4980846;28;20023;-95
2022/06/01 03:39:14;;;;;;;3.42;1.70;;;16.10;94.80;;;;;;5007116;28;20038;-95
2022/06/01 03:41:39;;;;;;;4.40;1.95;;;16.10;94.80;;;;;;5016951;28;20053;-95
2022/06/01 03:46:52;;;;;;;2.50;1.42;;;16.10;94.80;;;;;;5018020;28;20088;-94
2022/06/01 03:49:18;;;;;;;2.97;1.33;;;16.10;94.80;;;;;;5015811;28;20113;-95
2022/06/01 03:51:44;;;;;;;4.35;1.65;;;16.10;94.80;;;;;;5016441;28;20105;-95
2022/06/01 03:54:10;;;;;;;3.10;1.50;;;16.10;94.80;;;;;;5016041;28;20492;-95
2022/06/01 03:56:36;;;;;;;2.85;1.50;;;16.10;94.80;;;;;;5015861;28;20029;-95
2022/06/01 03:59:02;;;;;;;2.40;1.50;;;16.10;94.70;;;;;;5015257;28;20212;-95
2022/06/01 04:01:28;;;;;;;2.65;1.35;;;16.10;94.70;;;;;;5015665;28;20038;-95
2022/06/01 04:03:54;;;;;;;2.35;1.40;;;16.10;94.70;;;;;;5016196;28;20098;-95
2022/06/01 04:06:19;;;;;;;2.58;1.42;;;16.10;94.70;;;;;;5017623;28;20032;-95
2022/06/01 04:08:45;;;;;;;4.63;1.50;;;16.10;94.70;;;;;;5016928;28;20109;-94
2022/06/01 04:11:11;;;;;;;2.45;1.27;;;16.10;94.70;;;;;;5014558;28;20022;-94
2022/06/01 04:13:36;;;;;;;4.15;1.58;;;16.10;94.70;;;;;;5015683;28;20022;-93
2022/06/01 04:16:03;;;;;;;4.03;1.55;;;16.10;94.70;;;;;;5016290;28;20072;-95
2022/06/01 04:18:29;;;;;;;2.80;1.50;;;16.10;94.70;;;;;;5016321;28;20030;-95
2022/06/01 04:20:55;;;;;;;4.57;1.40;;;16.10;94.70;;;;;;5015950;28;20075;-94
2022/06/01 04:23:22;;;;;;;2.90;1.40;;;16.10;94.70;;;;;;5016274;28;20021;-95
2022/06/01 04:25:48;;;;;;;2.67;1.60;;;16.00;94.60;;;;;;5016681;28;20108;-94
2022/06/01 04:28:14;;;;;;;2.60;1.48;;;16.00;94.60;;;;;;5016515;28;20486;-94
2022/06/01 04:30:40;;;;;;;3.55;1.60;;;16.00;94.60;;;;;;5015668;28;20104;-95
2022/06/01 04:33:06;;;;;;;4.18;1.45;;;16.00;94.60;;;;;;5016793;28;20046;-94
2022/06/01 04:35:32;;;;;;;5.18;2.85;;;16.00;94.60;;;;;;5015964;28;20091;-95
2022/06/01 04:38:12;;;;;;;7.10;2.40;;;16.00;94.60;;;;;;5015466;28;20109;-94
2022/06/01 04:40:40;;;;;;;3.83;2.10;;;16.00;94.70;;;;;;5016271;28;20030;-95
2022/06/01 04:43:06;;;;;;;7.78;2.00;;;16.10;94.70;;;;;;5016121;28;20042;-95
2022/06/01 04:45:31;;;;;;;5.60;2.03;;;16.00;94.70;;;;;;5016260;28;20389;-94
2022/06/01 04:47:57;;;;;;;3.70;1.77;;;16.00;94.80;;;;;;5017488;28;20034;-95
2022/06/01 04:50:23;;;;;;;3.17;1.80;;;16.00;94.80;;;;;;5016716;28;20531;-94
2022/06/01 04:52:48;;;;;;;3.25;1.73;;;16.10;94.90;;;;;;5015791;28;20032;-95
2022/06/01 04:55:14;;;;;;;4.80;1.70;;;16.10;94.90;;;;;;5016891;28;20372;-95
2022/06/01 04:57:40;;;;;;;3.58;1.98;;;16.10;94.90;;;;;;5016029;28;20022;-94
2022/06/01 05:00:07;;;;;;;4.60;1.80;;;16.10;94.90;;;;;;5015708;28;20161;-95
2022/06/01 05:02:34;;;;;;;4.55;1.67;;;16.10;94.90;;;;;;5016608;28;20080;-95
2022/06/01 05:05:00;;;;;;;5.57;1.85;;;16.10;95.00;;;;;;5016138;28;20425;-94
2022/06/01 05:07:25;;;;;;;3.97;1.65;;;16.10;95.10;;;;;;5016138;28;20033;-95
2022/06/01 05:09:51;;;;;;;4.75;1.83;;;16.10;95.10;;;;;;5016668;28;20454;-95
2022/06/01 05:12:17;;;;;;;4.30;1.80;;;16.10;95.10;;;;;;5015826;28;20072;-94
2022/06/01 05:14:43;;;;;;;5.80;1.80;;;16.00;95.00;;;;;;5015555;28;20448;-94
2022/06/01 05:17:08;;;;;;;2.83;1.60;;;16.10;95.10;;;;;;5016063;28;20026;-94
2022/06/01 05:19:35;;;;;;;3.78;1.80;;;16.10;95.10;;;;;;5016100;28;20061;-95
2022/06/01 05:22:01;;;;;;;2.67;1.73;;;16.10;95.10;;;;;;5015431;28;20026;-94
2022/06/01 05:24:26;;;;;;;3.42;1.55;;;16.10;95.20;;;;;;5015300;28;20499;-95
2022/06/01 05:26:52;;;;;;;2.45;1.73;;;16.10;95.30;;;;;;5016711;28;20040;-95
2022/06/01 05:29:18;;;;;;;4.90;1.80;;;16.10;95.30;;;;;;5017655;28;20018;-92
2022/06/01 05:31:44;;;;;;;3.55;1.50;;;16.10;95.30;;;;;;5016081;28;20030;-92
2022/06/01 05:34:10;;;;;;;6.93;1.60;;;16.10;95.40;;;;;;5016441;28;20032;-92
2022/06/01 05:36:36;;;;;;;3.03;1.60;;;16.10;95.40;;;;;;5016702;28;20026;-92
2022/06/01 05:39:03;;;;;;;5.30;1.70;;;16.10;95.50;;;;;;5016651;28;20454;-93
2022/06/01 05:41:29;;;;;;;4.28;1.92;;;16.10;95.50;;;;;;5016755;28;20497;-92
2022/06/01 05:43:55;;;;;;;4.32;1.60;;;16.10;95.50;;;;;;5016877;28;20057;-91
2022/06/01 05:46:24;;;;;;;3.13;1.80;;;16.10;95.60;;;;;;5017831;28;20477;-92
2022/06/01 05:48:50;;;;;;;3.38;1.60;;;16.10;95.60;;;;;;5016508;28;20056;-93
2022/06/01 05:51:16;;;;;;;4.85;1.58;;;16.10;95.70;;;;;;5016626;28;20030;-93
2022/06/01 05:53:41;;;;;;;3.13;1.55;;;16.10;95.70;;;;;;5016887;28;20022;-92
2022/06/01 05:56:07;;;;;;;3.65;1.90;;;16.20;95.80;;;;;;5016432;28;20502;-92
2022/06/01 05:58:33;;;;;;;2.92;1.88;;;16.10;95.80;;;;;;5016328;28;20030;-93
2022/06/01 06:01:05;;;;;;;3.88;1.55;;;16.10;95.80;;;;;;5016583;28;20014;-92
2022/06/01 06:03:33;;;;;;;4.10;1.73;;;16.10;95.80;;;;;;5016433;28;20045;-92
2022/06/01 06:06:12;;;;;;;3.08;1.80;;;16.10;95.90;;;;;;5016050;28;20026;-91
2022/06/01 06:08:46;;;;;;;2.88;1.65;;;16.10;95.90;;;;;;5016215;28;20069;-93
2022/06/01 06:11:13;;;;;;;2.28;1.45;;;16.10;95.90;;;;;;5015812;28;20109;-91
2022/06/01 06:13:39;;;;;;;3.25;1.73;;;16.20;96.00;;;;;;5015441;28;20026;-92
2022/06/01 06:16:05;;;;;;;3.72;1.88;;;16.10;96.00;;;;;;5016060;28;20029;-92
2022/06/01 06:18:31;;;;;;;4.18;1.60;;;16.20;96.00;;;;;;5015781;28;20022;-90
2022/06/01 06:20:57;;;;;;;6.07;2.13;;;16.20;96.10;;;;;;5020537;28;20101;-91
2022/06/01 06:23:22;;;;;;;8.25;2.53;;;16.20;98.40;;;;;;5019197;28;20049;-91
2022/06/01 06:25:48;;;;;;;6.90;2.40;;;16.20;99.00;;;;;;5015963;28;20026;-89
2022/06/01 06:28:14;;;;;;;6.40;2.42;;;16.20;99.50;;;;;;5015667;28;20026;-89
2022/06/01 06:30:40;;;;;;;5.63;2.15;;;16.10;99.90;;;;;;5015311;28;20477;-89
2022/06/01 06:33:06;;;;;;;7.72;2.30;;;16.10;99.90;;;;;;5015943;28;20052;-89
2022/06/01 06:35:32;;;;;;;4.97;2.00;;;16.10;99.90;;;;;;5017350;28;20032;-89
2022/06/01 06:37:58;;;;;;;6.68;1.90;;;16.20;99.90;;;;;;5012545;28;20464;-88
2022/06/01 06:40:24;;;;;;;7.97;2.30;;;16.20;99.90;;;;;;4997227;28;20027;-88
2022/06/01 06:42:51;;;;;;;5.55;2.20;;;16.30;99.90;;;;;;4997423;28;20026;-87
2022/06/01 06:45:17;;;;;;;7.50;2.15;;;16.30;99.90;;;;;;4979972;28;20031;-91
2022/06/01 06:47:43;;;;;;;10.23;1.90;;;16.30;99.90;;;;;;4996801;28;20070;-89
2022/06/01 06:50:10;;;;;;;4.15;2.03;;;16.40;99.90;;;;;;4979676;28;20057;-87
2022/06/01 06:52:36;;;;;;;5.25;2.13;;;16.50;99.90;;;;;;4980170;28;20054;-90
2022/06/01 06:55:02;;;;;;;5.38;1.75;;;16.50;99.90;;;;;;4979580;28;20441;-89
2022/06/01 06:57:28;;;;;;;3.13;1.80;;;16.70;99.90;;;;;;4979795;28;20034;-93
2022/06/01 06:59:53;;;;;;;8.02;2.03;;;16.70;99.90;;;;;;4978444;28;20030;-88
2022/06/01 07:02:19;;;;;;;9.30;2.22;;;16.80;99.90;;;;;;4979656;28;20034;-87
2022/06/01 07:04:46;;;;;;;7.20;2.00;;;16.80;99.90;;;;;;4979235;28;20042;-90
2022/06/01 07:07:13;;;;;;;11.45;2.28;;;16.90;99.90;;;;;;4978248;28;20029;-92
2022/06/01 07:09:38;;;;;;;7.90;1.70;;;16.90;99.90;;;;;;4978304;28;20034;-92
2022/06/01 07:12:04;;;;;;;13.68;2.13;;;16.80;99.90;;;;;;4978663;28;20023;-92
2022/06/01 07:14:30;;;;;;;5.40;1.60;;;16.80;99.90;;;;;;4978181;28;20110;-91
2022/06/01 07:16:59;;;;;;;12.85;2.10;;;16.80;99.90;;;;;;4995621;28;20482;-92
2022/06/01 07:19:25;;;;;;;25.30;2.65;;;16.70;99.90;;;;;;4978360;28;20034;-92
2022/06/01 07:21:51;;;;;;;15.00;2.20;;;16.70;99.90;;;;;;4978866;28;20032;-91
2022/06/01 07:24:17;;;;;;;24.42;2.97;;;16.80;99.90;;;;;;4978206;28;20026;-91
2022/06/01 07:26:45;;;;;;;14.07;3.17;;;17.00;99.90;;;;;;4978000;28;20034;-92
2022/06/01 07:29:13;;;;;;;20.38;2.70;;;17.10;99.90;;;;;;4978569;28;20018;-93
2022/06/01 07:31:39;;;;;;;7.55;1.88;;;17.20;99.90;;;;;;4996292;28;20030;-90
2022/06/01 07:34:05;;;;;;;24.27;2.97;;;17.40;99.90;;;;;;4996297;28;20506;-91
2022/06/01 07:36:31;;;;;;;7.93;1.90;;;17.50;99.90;;;;;;4995777;28;20521;-91
2022/06/01 07:44:31;;;;;;;7.15;1.48;;;18.00;98.30;;;;;;4996619;28;20556;-91
2022/06/01 07:46:58;;;;;;;12.18;2.40;;;18.20;98.40;;;;;;4979018;28;20054;-91
2022/06/01 07:49:25;;;;;;;17.38;2.35;;;18.30;98.50;;;;;;4978616;28;20462;-90
2022/06/01 07:51:51;;;;;;;6.25;1.77;;;18.40;98.00;;;;;;4979438;28;20542;-93
2022/06/01 07:54:17;;;;;;;2.08;0.90;;;18.50;98.00;;;;;;4996422;28;20065;-92
2022/06/01 07:56:43;;;;;;;7.88;1.70;;;18.60;93.60;;;;;;4996758;28;20030;-91
2022/06/01 07:59:10;;;;;;;8.68;1.40;;;18.60;97.00;;;;;;4978564;28;20053;-91
2022/06/01 08:01:37;;;;;;;9.02;1.85;;;18.70;97.10;;;;;;4978936;28;20022;-92
2022/06/01 08:04:04;;;;;;;6.45;1.10;;;18.80;96.90;;;;;;4977977;28;20421;-91
2022/06/01 08:06:31;;;;;;;3.42;0.90;;;18.90;93.90;;;;;;4977458;28;20093;-91
2022/06/01 08:08:57;;;;;;;14.00;1.40;;;19.00;92.50;;;;;;4977894;28;20026;-90
2022/06/01 08:14:10;;;;;;;10.52;1.40;;;19.20;90.50;;;;;;4995744;28;20033;-85
2022/06/01 08:16:38;;;;;;;7.82;1.48;;;19.40;89.90;;;;;;4978057;28;20026;-89
2022/06/01 11:07:07;;;;;;;2.85;0.60;;;23.20;70.10;;;;;;5092760;28;20723;-88
2022/06/01 11:09:44;;;;;;;1.58;0.70;;;23.40;70.40;;;;;;5054133;28;20028;-89
2022/06/01 11:12:34;;;;;;;0.90;0.60;;;23.40;70.10;;;;;;5053894;28;20024;-88
2022/06/01 11:15:14;;;;;;;1.25;0.68;;;23.50;69.40;;;;;;5054102;28;20096;-88
2022/06/01 11:17:46;;;;;;;3.95;0.77;;;23.70;69.80;;;;;;5053984;28;20158;-88
2022/06/01 11:20:53;;;;;;;0.73;0.43;;;23.90;69.20;;;;;;5054040;28;20021;-90
2022/06/01 11:23:46;;;;;;;2.00;0.70;;;23.90;68.20;;;;;;4956658;28;20074;-89
2022/06/01 11:26:39;;;;;;;2.17;0.70;;;23.70;68.00;;;;;;4972062;28;20078;-87
2022/06/01 11:29:31;;;;;;;2.05;0.60;;;23.60;68.50;;;;;;5039749;28;20033;-88
2022/06/01 11:32:03;;;;;;;2.35;0.80;;;23.40;68.20;;;;;;5054452;28;20047;-89
2022/06/01 11:34:51;;;;;;;2.38;0.77;;;23.20;68.80;;;;;;5056173;28;20017;-91
2022/06/01 11:37:31;;;;;;;2.97;0.65;;;23.20;70.30;;;;;;5054244;28;20032;-90
2022/06/01 11:40:06;;;;;;;1.42;0.70;;;23.30;70.30;;;;;;5071804;28;20482;-89
2022/06/01 11:42:39;;;;;;;2.00;0.70;;;23.50;70.30;;;;;;5053758;28;20063;-89
2022/06/01 11:45:16;;;;;;;2.83;0.80;;;23.50;69.40;;;;;;5053518;28;20116;-88
2022/06/01 11:47:49;;;;;;;1.85;0.60;;;23.60;70.10;;;;;;5071441;28;20021;-89
2022/06/01 11:50:24;;;;;;;2.05;0.80;;;23.50;69.60;;;;;;5071798;28;20384;-88
2022/06/01 11:52:59;;;;;;;1.25;0.63;;;23.60;70.50;;;;;;5053982;28;20464;-88
2022/06/01 11:55:41;;;;;;;3.65;0.88;;;23.80;70.00;;;;;;5059210;28;20082;-89
2022/06/01 11:58:23;;;;;;;3.78;0.70;;;23.70;69.90;;;;;;5067454;28;20032;-88
2022/06/01 12:01:08;;;;;;;1.73;0.77;;;23.80;70.10;;;;;;5040243;28;20083;-91
2022/06/01 12:03:56;;;;;;;6.97;1.25;;;24.10;69.70;;;;;;5039819;28;20029;-88
2022/06/01 12:06:37;;;;;;;10.40;1.17;;;24.30;69.30;;;;;;5068547;28;20052;-90
2022/06/01 12:09:21;;;;;;;17.23;1.20;;;24.40;68.70;;;;;;5062736;28;20117;-88
2022/06/01 12:11:47;;;;;;;16.23;1.23;;;24.50;69.40;;;;;;5062997;28;20032;-90
2022/06/01 12:14:33;;;;;;;26.73;1.83;;;24.50;69.10;;;;;;5062914;28;20029;-90
2022/06/01 12:17:17;;;;;;;18.10;1.63;;;24.50;70.00;;;;;;5064383;28;20036;-86
2022/06/01 12:19:45;;;;;;;;;;;24.40;68.90;;;;;;5064503;28;20517;-89
2022/06/01 12:28:48;;;;;;;4.75;0.90;;;24.80;70.20;;;;;;5060634;28;20073;-88
2022/06/01 12:31:21;;;;;;;5.78;1.20;;;25.00;68.70;;;;;;5068038;28;20464;-89
2022/06/01 12:34:13;;;;;;;7.00;0.95;;;25.10;68.10;;;;;;5068032;28;20079;-90
2022/06/01 12:37:09;;;;;;;2.33;0.85;;;25.10;68.30;;;;;;5055474;28;20029;-88
2022/06/01 12:39:37;;;;;;;2.22;0.70;;;24.90;68.90;;;;;;5063725;28;20025;-86
2022/06/01 12:42:11;;;;;;;5.65;0.90;;;25.00;69.90;;;;;;5067202;28;20100;-89
2022/06/01 12:44:40;;;;;;;7.88;1.17;;;25.10;68.90;;;;;;5065858;28;20025;-88
2022/06/01 12:47:27;;;;;;;6.10;1.08;;;25.10;69.50;;;;;;5068546;28;20051;-89
2022/06/01 12:49:53;;;;;;;12.27;1.35;;;24.90;69.60;;;;;;5067915;28;20036;-89
2022/06/01 12:52:24;;;;;;;2.03;0.90;;;24.70;69.80;;;;;;5071125;28;20029;-90
2022/06/01 12:54:50;;;;;;;3.08;0.95;;;24.70;70.50;;;;;;5063908;28;20029;-93
2022/06/01 12:57:27;;;;;;;4.38;0.82;;;24.70;71.40;;;;;;5064415;28;20048;-88
2022/06/01 13:00:17;;;;;;;6.95;1.02;;;24.80;70.80;;;;;;5067724;28;20009;-86
2022/06/01 13:02:51;;;;;;;21.08;1.30;;;25.20;71.30;;;;;;5068758;28;20025;-87
2022/06/01 13:05:46;;;;;;;5.97;0.90;;;25.30;68.70;;;;;;5066430;28;20124;-86
2022/06/01 13:08:25;;;;;;;3.25;0.80;;;25.00;68.70;;;;;;5060238;28;20021;-87
2022/06/01 13:10:51;;;;;;;2.45;0.75;;;24.90;69.30;;;;;;5064008;28;20035;-89
2022/06/01 13:13:30;;;;;;;6.70;1.10;;;24.90;70.10;;;;;;5061828;28;20076;-91
2022/06/01 13:16:04;;;;;;;3.65;1.10;;;25.10;71.20;;;;;;5061091;28;20048;-89
2022/06/01 13:18:50;;;;;;;6.50;1.00;;;25.50;70.60;;;;;;5058900;28;20033;-89
2022/06/01 13:21:33;;;;;;;1.33;0.80;;;26.10;69.90;;;;;;5058798;28;20076;-84
2022/06/01 13:24:06;;;;;;;4.10;0.80;;;26.30;69.40;;;;;;5060126;28;20009;-90
2022/06/01 13:26:40;;;;;;;5.47;1.10;;;26.20;68.50;;;;;;5063136;28;20033;-89
2022/06/01 13:29:32;;;;;;;1.25;0.73;;;25.70;68.30;;;;;;5059465;28;20644;-89
2022/06/01 13:32:06;;;;;;;5.20;0.80;;;25.10;69.00;;;;;;5059268;28;20430;-91
2022/06/01 13:34:42;;;;;;;5.20;0.90;;;24.60;69.90;;;;;;5067767;28;20021;-91
2022/06/01 13:37:15;;;;;;;12.10;8.65;;;24.30;70.20;;;;;;5061184;28;20255;-91
2022/06/01 13:39:49;;;;;;;40.75;9.18;;;24.40;70.70;;;;;;5058709;28;20096;-91
2022/06/01 13:42:29;;;;;;;13.82;2.78;;;24.40;70.30;;;;;;5059079;28;20028;-91
2022/06/01 13:45:08;;;;;;;7.68;1.10;;;24.50;70.30;;;;;;5061809;28;20040;-91
2022/06/01 13:54:36;;;;;;;4.75;0.95;;;25.10;68.30;;;;;;5115810;27;20364;-87
2022/06/01 13:57:20;;;;;;;2.25;0.77;;;24.60;69.60;;;;;;5093992;28;20024;-91
2022/06/01 13:59:55;;;;;;;3.28;0.90;;;24.60;70.30;;;;;;5066075;28;20051;-91
2022/06/01 14:02:50;;;;;;;3.30;1.17;;;24.90;70.80;;;;;;5076363;28;20017;-92
2022/06/01 14:05:22;;;;;;;5.80;0.80;;;25.50;69.80;;;;;;5057911;28;20039;-90
2022/06/01 14:07:55;;;;;;;1.77;0.88;;;26.00;66.60;;;;;;5075737;28;20020;-91
2022/06/01 14:10:31;;;;;;;4.22;1.02;;;26.10;66.20;;;;;;5058366;28;20111;-89
2022/06/01 14:12:57;;;;;;;3.35;0.73;;;25.60;67.00;;;;;;5056963;28;20085;-91
2022/06/01 14:15:23;;;;;;;1.63;0.70;;;24.80;68.50;;;;;;5055598;28;20084;-89
2022/06/01 14:17:49;;;;;;;1.30;0.70;;;24.20;70.10;;;;;;5055097;28;20029;-90
2022/06/01 14:20:14;;;;;;;5.53;0.98;;;23.90;71.70;;;;;;5055563;28;20017;-90
2022/06/01 14:22:40;;;;;;;5.95;1.27;;;23.60;72.10;;;;;;5054822;28;20494;-90
2022/06/01 14:30:39;;;;;;;6.18;0.80;;;22.80;74.40;;;;;;5072494;28;20098;-87
2022/06/01 14:33:09;;;;;;;4.43;0.82;;;22.60;74.80;;;;;;5054155;28;20531;-92
2022/06/01 14:35:35;;;;;;;4.18;0.98;;;22.50;75.30;;;;;;5054466;28;20039;-92
2022/06/01 14:38:00;;;;;;;3.15;1.00;;;22.30;75.70;;;;;;5053983;28;20120;-91
2022/06/01 14:40:26;;;;;;;4.57;0.93;;;22.20;76.20;;;;;;5054506;28;20160;-91
2022/06/01 14:42:55;;;;;;;2.50;1.02;;;22.10;76.30;;;;;;5071585;28;20035;-89
2022/06/01 14:45:20;;;;;;;1.98;0.88;;;22.10;76.70;;;;;;5054725;28;20017;-91
2022/06/01 14:47:50;;;;;;;3.20;0.90;;;22.00;77.00;;;;;;5057334;28;20031;-89
2022/06/01 14:50:15;;;;;;;2.45;0.90;;;21.90;77.10;;;;;;5074904;28;20024;-92
2022/06/01 14:52:41;;;;;;;3.15;0.88;;;21.90;77.30;;;;;;5057137;28;20063;-92
2022/06/01 14:55:07;;;;;;;2.53;0.80;;;21.90;77.30;;;;;;5071965;28;20021;-93
2022/06/01 14:57:33;;;;;;;1.83;0.80;;;22.00;77.40;;;;;;5071512;28;20021;-88
2022/06/01 15:00:01;;;;;;;1.88;0.80;;;22.10;77.10;;;;;;5070878;28;20071;-91
2022/06/01 15:02:27;;;;;;;3.70;0.70;;;22.10;77.10;;;;;;5070874;28;20395;-92
2022/06/01 15:04:59;;;;;;;2.92;0.90;;;22.10;77.30;;;;;;5063286;28;20562;-92
2022/06/01 15:07:24;;;;;;;2.88;0.73;;;22.10;77.30;;;;;;5057992;28;20025;-91
2022/06/01 15:09:50;;;;;;;2.28;0.98;;;22.10;77.30;;;;;;5057502;28;20025;-92
2022/06/01 15:12:16;;;;;;;2.25;0.80;;;22.10;77.40;;;;;;5057567;28;20025;-89
2022/06/01 15:14:41;;;;;;;1.33;0.70;;;22.00;77.50;;;;;;5067069;28;20108;-91
2022/06/01 15:17:31;;;;;;;1.73;0.95;;;22.00;77.80;;;;;;5062156;28;20025;-92
2022/06/01 15:19:57;;;;;;;1.05;0.63;;;22.00;77.90;;;;;;5063542;28;20028;-91
2022/06/01 15:22:24;;;;;;;2.15;0.88;;;22.00;78.10;;;;;;5063678;28;20025;-92
2022/06/01 15:24:52;;;;;;;1.80;0.80;;;21.90;78.20;;;;;;5065246;28;20009;-94
2022/06/01 15:27:22;;;;;;;2.35;0.60;;;21.90;78.30;;;;;;5065972;28;20043;-94
2022/06/01 15:40:46;;;;;;;2.35;0.80;;;21.80;78.80;;;;;;5066147;28;20028;-91
2022/06/01 15:43:12;;;;;;;2.40;0.90;;;21.80;78.90;;;;;;5063831;28;20029;-93
2022/06/01 15:45:41;;;;;;;2.65;0.85;;;21.80;78.80;;;;;;5062958;28;20479;-93
2022/06/01 15:48:08;;;;;;;1.38;0.88;;;21.80;78.70;;;;;;5061419;28;20057;-92
2022/06/01 15:50:37;;;;;;;2.20;0.70;;;21.90;78.50;;;;;;5056457;28;20472;-92
2022/06/01 15:53:03;;;;;;;2.50;0.70;;;21.90;78.40;;;;;;5048307;28;20037;-90
2022/06/01 15:55:29;;;;;;;0.73;0.70;;;21.90;78.40;;;;;;5018930;28;20466;-92
2022/06/01 15:57:54;;;;;;;0.98;0.70;;;21.80;78.60;;;;;;5019444;28;20025;-94
2022/06/01 16:00:20;;;;;;;1.83;0.90;;;21.70;79.10;;;;;;5020738;28;20021;-94
2022/06/01 16:02:47;;;;;;;3.13;1.00;;;21.70;79.30;;;;;;5019397;28;20107;-92
2022/06/01 16:05:13;;;;;;;2.75;0.80;;;21.60;79.60;;;;;;5036894;28;20472;-93
2022/06/01 16:07:40;;;;;;;3.03;0.93;;;21.50;79.90;;;;;;5021430;28;20030;-94
2022/06/01 16:10:06;;;;;;;1.17;0.70;;;21.40;80.10;;;;;;5020650;28;20029;-92
2022/06/01 16:12:33;;;;;;;1.35;0.80;;;21.30;80.20;;;;;;5024930;28;20116;-94
2022/06/01 16:14:59;;;;;;;1.40;0.90;;;21.30;80.40;;;;;;5028879;28;20069;-94
2022/06/01 16:17:29;;;;;;;1.10;0.75;;;21.30;80.60;;;;;;5024938;28;20033;-91
2022/06/01 16:19:59;;;;;;;1.20;1.00;;;21.20;80.70;;;;;;5021681;28;20036;-91
2022/06/01 16:22:25;;;;;;;1.67;0.90;;;21.20;80.90;;;;;;5040329;28;20041;-92
2022/06/01 16:24:51;;;;;;;1.60;0.82;;;21.20;81.10;;;;;;5019342;28;20087;-91
2022/06/01 16:27:18;;;;;;;1.83;0.90;;;21.10;81.00;;;;;;5020542;28;20044;-94
2022/06/01 16:29:45;;;;;;;3.10;0.80;;;21.10;81.30;;;;;;5021234;28;20082;-91
2022/06/01 16:32:21;;;;;;;2.63;1.00;;;21.10;81.40;;;;;;5022898;28;20475;-93
2022/06/01 16:34:48;;;;;;;3.58;1.05;;;21.00;81.40;;;;;;5022346;28;20032;-92